Time;durP1;ratioP1;P1;durP2;ratioP2;P2;SDS_P1;SDS_P2;PMS_P1;PMS_P2;Temp;Humidity;BMP_temperature;BMP_pressure;BME280_temperature;BME280_humidity;BME280_pressure;Samples;Min_cycle;Max_cycle;Signal;HPM_P1;HPM_P2
2022/04/17 00:00:03;;;;;;;3.73;2.90;;;;;;;2.71;79.98;96080.20;1795394;80;21038;-71
2022/04/17 00:02:32;;;;;;;3.93;3.20;;;;;;;2.58;80.41;96077.35;1795292;80;21457;-71
2022/04/17 00:04:59;;;;;;;4.70;3.57;;;;;;;2.55;79.67;96074.69;1795699;80;20971;-71
2022/04/17 00:07:26;;;;;;;4.40;2.70;;;;;;;2.58;79.71;96069.53;1795501;80;21004;-71
2022/04/17 00:09:52;;;;;;;3.20;2.90;;;;;;;2.57;79.01;96069.09;1795375;80;21030;-71
2022/04/17 00:12:18;;;;;;;3.27;2.73;;;;;;;2.43;79.13;96068.36;1795234;80;20994;-69
2022/04/17 00:14:45;;;;;;;3.10;2.80;;;;;;;2.46;80.17;96063.20;1795322;80;21457;-70
2022/04/17 00:17:13;;;;;;;3.10;2.80;;;;;;;2.46;79.33;96062.77;1795394;80;21022;-70
2022/04/17 00:19:39;;;;;;;4.70;3.00;;;;;;;2.43;79.25;96065.33;1795512;80;21525;-70
2022/04/17 00:22:06;;;;;;;3.00;2.70;;;;;;;2.40;79.42;96060.48;1795604;80;21041;-70
2022/04/17 00:24:32;;;;;;;3.10;2.50;;;;;;;2.42;80.47;96056.16;1795503;80;20975;-70
2022/04/17 00:27:00;;;;;;;5.83;3.43;;;;;;;2.45;79.86;96058.86;1795126;80;21081;-70
2022/04/17 00:29:27;;;;;;;4.57;2.60;;;;;;;2.44;79.17;96058.38;1795245;80;20951;-70
2022/04/17 00:31:58;;;;;;;4.53;2.93;;;;;;;2.38;79.45;96052.63;1795554;80;20971;-70
2022/04/17 00:34:26;;;;;;;3.97;3.10;;;;;;;2.33;79.27;96050.36;1795601;80;21010;-70
2022/04/17 00:36:53;;;;;;;3.50;2.50;;;;;;;2.31;78.94;96058.56;1795794;80;21026;-70
2022/04/17 00:39:19;;;;;;;6.13;4.03;;;;;;;2.36;78.65;96049.98;1795520;80;21495;-70
2022/04/17 00:41:48;;;;;;;6.60;3.83;;;;;;;2.35;78.41;96046.94;1795520;80;21014;-70
2022/04/17 00:44:15;;;;;;;4.77;3.20;;;;;;;2.41;78.25;96048.78;1795186;80;21057;-71
2022/04/17 00:46:41;;;;;;;5.30;3.50;;;;;;;2.51;78.90;96051.15;1764531;80;21034;-70
2022/04/17 00:49:09;;;;;;;5.57;3.10;;;;;;;2.56;79.22;96050.38;1795286;80;21010;-70
2022/04/17 00:51:37;;;;;;;3.37;3.07;;;;;;;2.68;78.79;96033.25;1795357;80;21030;-70
2022/04/17 00:54:07;;;;;;;5.43;2.80;;;;;;;2.72;78.36;96032.04;1795393;80;21484;-70
2022/04/17 00:56:34;;;;;;;3.73;2.90;;;;;;;2.72;77.95;96037.64;1787692;80;20991;-70
2022/04/17 00:59:02;;;;;;;3.30;2.43;;;;;;;2.70;76.38;96034.16;1786870;80;21026;-70
2022/04/17 01:01:33;;;;;;;4.20;2.97;;;;;;;2.67;76.67;96027.56;1787121;80;21031;-70
2022/04/17 01:04:01;;;;;;;9.00;4.37;;;;;;;2.61;76.03;96027.03;1786923;80;21050;-70
2022/04/17 01:06:28;;;;;;;4.97;2.93;;;;;;;2.65;76.71;96031.90;1787310;80;20994;-70
2022/04/17 01:08:55;;;;;;;4.93;3.20;;;;;;;2.63;76.93;96025.77;1787051;80;21517;-70
2022/04/17 01:11:21;;;;;;;4.57;3.07;;;;;;;2.60;76.62;96023.55;1787107;80;20993;-70
2022/04/17 01:13:48;;;;;;;3.53;2.77;;;;;;;2.53;77.18;96022.98;1786640;80;21002;-70
2022/04/17 01:16:18;;;;;;;4.73;3.07;;;;;;;2.49;76.88;96025.06;1786770;80;21022;-70
2022/04/17 01:18:56;;;;;;;6.77;3.50;;;;;;;2.45;77.67;96023.70;1786951;80;21118;-70
2022/04/17 01:21:24;;;;;;;4.27;2.73;;;;;;;2.38;77.96;96031.37;1787138;80;21465;-71
2022/04/17 01:26:56;;;;;;;4.17;2.87;;;;;;;2.41;77.58;96032.28;1787062;80;21010;-71
2022/04/17 01:29:38;;;;;;;4.23;3.10;;;;;;;2.39;77.73;96037.45;1786934;80;21006;-71
2022/04/17 01:32:08;;;;;;;2.93;2.33;;;;;;;2.39;77.43;96033.55;1786975;80;20983;-71
2022/04/17 01:34:37;;;;;;;2.80;2.40;;;;;;;2.34;78.46;96028.27;1787054;80;21022;-70
2022/04/17 01:37:05;;;;;;;3.53;2.80;;;;;;;2.30;77.40;96022.53;1787130;80;21037;-70
2022/04/17 01:39:32;;;;;;;4.23;2.87;;;;;;;2.24;77.99;96031.50;1787080;80;20960;-70
2022/04/17 01:42:00;;;;;;;3.67;3.00;;;;;;;2.20;78.18;96028.41;1787009;80;20999;-70
2022/04/17 01:44:29;;;;;;;3.03;2.73;;;;;;;2.15;78.29;96030.03;1787008;80;21007;-70
2022/04/17 01:46:57;;;;;;;5.50;3.10;;;;;;;2.18;79.36;96034.42;1787062;80;20991;-70
2022/04/17 01:49:24;;;;;;;3.20;2.87;;;;;;;2.14;79.49;96029.56;1787258;80;20967;-70
2022/04/17 01:51:52;;;;;;;4.80;3.67;;;;;;;2.23;79.53;96032.80;1787423;80;20983;-71
2022/04/17 01:54:20;;;;;;;3.30;2.80;;;;;;;2.22;79.41;96031.92;1787081;80;20987;-70
2022/04/17 01:56:47;;;;;;;3.80;3.00;;;;;;;2.21;79.89;96030.58;1794613;80;21022;-70
2022/04/17 01:59:16;;;;;;;3.63;2.83;;;;;;;2.22;79.77;96033.22;1795472;80;21034;-70
2022/04/17 02:01:43;;;;;;;5.30;3.00;;;;;;;2.22;79.38;96029.72;1795634;80;21034;-70
2022/04/17 02:04:11;;;;;;;3.10;2.40;;;;;;;2.06;78.85;96026.80;1795229;80;20975;-71
2022/04/17 02:06:42;;;;;;;3.73;2.83;;;;;;;1.98;79.23;96030.97;1795588;80;21034;-71
2022/04/17 02:09:14;;;;;;;3.83;3.00;;;;;;;1.96;80.41;96028.75;1795494;80;21002;-71
2022/04/17 02:11:42;;;;;;;3.00;2.30;;;;;;;1.98;81.31;96028.36;1795599;80;21050;-71
2022/04/17 02:14:10;;;;;;;3.20;2.47;;;;;;;1.99;80.62;96027.54;1794998;80;21015;-71
2022/04/17 02:16:37;;;;;;;3.10;2.43;;;;;;;1.91;81.12;96024.74;1795582;80;21053;-71
2022/04/17 02:19:04;;;;;;;4.77;3.50;;;;;;;1.89;81.64;96025.55;1795447;80;21018;-71
2022/04/17 02:21:32;;;;;;;3.87;2.97;;;;;;;1.91;81.43;96023.88;1795300;80;21018;-70
2022/04/17 02:24:00;;;;;;;4.23;3.20;;;;;;;1.91;81.77;96023.88;1795443;80;21002;-70
2022/04/17 02:26:27;;;;;;;6.07;3.63;;;;;;;1.93;81.91;96022.19;1795464;80;21101;-70
2022/04/17 02:28:56;;;;;;;5.87;3.20;;;;;;;1.97;81.50;96015.34;1795330;80;21026;-70
2022/04/17 02:31:24;;;;;;;5.17;3.60;;;;;;;1.94;81.40;96020.93;1795176;80;21125;-70
2022/04/17 02:33:51;;;;;;;5.43;4.00;;;;;;;1.90;81.96;96022.13;1795485;80;21023;-70
2022/04/17 02:36:18;;;;;;;8.77;4.77;;;;;;;1.95;81.92;96029.18;1795491;80;21539;-70
2022/04/17 02:38:45;;;;;;;9.13;5.53;;;;;;;2.01;81.53;96030.16;1795533;80;21018;-70
2022/04/17 02:41:12;;;;;;;7.43;4.30;;;;;;;2.04;81.30;96030.21;1795560;80;21007;-71
2022/04/17 02:43:38;;;;;;;5.43;3.80;;;;;;;2.00;81.08;96027.11;1795214;80;21022;-70
2022/04/17 02:46:05;;;;;;;5.87;4.40;;;;;;;1.98;80.90;96029.67;1795552;80;21488;-70
2022/04/17 02:48:32;;;;;;;6.13;4.10;;;;;;;1.95;80.79;96025.70;1795606;80;20963;-71
2022/04/17 02:50:59;;;;;;;5.73;4.00;;;;;;;1.97;80.84;96020.55;1795366;80;21007;-71
2022/04/17 02:53:26;;;;;;;6.60;4.13;;;;;;;1.95;80.68;96025.28;1795146;80;21073;-71
2022/04/17 02:55:52;;;;;;;4.53;3.60;;;;;;;1.86;80.84;96022.46;1795440;80;21042;-71
2022/04/17 02:58:19;;;;;;;7.53;4.20;;;;;;;1.87;81.04;96024.67;1795468;80;21003;-70
2022/04/17 03:06:16;;;;;;;5.27;3.57;;;;;;;1.79;81.69;96015.40;1795554;80;21004;-73
2022/04/17 03:08:43;;;;;;;4.67;3.90;;;;;;;1.73;82.05;96008.73;1795501;80;20979;-73
2022/04/17 03:11:11;;;;;;;4.30;3.33;;;;;;;1.78;81.63;96014.92;1795481;80;21022;-72
2022/04/17 03:13:37;;;;;;;4.43;3.23;;;;;;;1.78;81.49;96019.25;1795297;80;21050;-72
2022/04/17 03:16:06;;;;;;;5.77;3.57;;;;;;;1.78;81.62;96018.83;1795741;80;21453;-71
2022/04/17 03:18:33;;;;;;;4.70;3.60;;;;;;;1.76;81.45;96023.11;1795911;80;21038;-70
2022/04/17 03:20:59;;;;;;;4.53;3.43;;;;;;;1.68;81.43;96022.94;1795189;80;21011;-71
2022/04/17 03:23:26;;;;;;;4.73;3.67;;;;;;;1.73;81.85;96031.72;1795182;80;21125;-70
2022/04/17 03:25:54;;;;;;;6.17;4.07;;;;;;;1.86;82.26;96033.30;1795302;80;20971;-71
2022/04/17 03:28:20;;;;;;;4.90;3.70;;;;;;;1.94;81.88;96022.63;1795415;80;21469;-71
2022/04/17 03:30:47;;;;;;;3.30;2.70;;;;;;;2.03;81.26;96025.87;1795454;80;21050;-71
2022/04/17 03:33:14;;;;;;;4.10;3.00;;;;;;;2.01;80.46;96022.34;1795033;80;21014;-71
2022/04/17 03:35:41;;;;;;;3.70;3.20;;;;;;;1.94;79.99;96026.14;1795467;80;21483;-71
2022/04/17 03:38:09;;;;;;;4.50;3.37;;;;;;;1.83;80.59;96029.34;1795459;80;21041;-71
2022/04/17 03:40:36;;;;;;;6.60;3.80;;;;;;;1.75;80.51;96024.39;1795260;80;21496;-71
2022/04/17 03:43:04;;;;;;;5.00;3.83;;;;;;;1.69;81.05;96023.84;1795386;80;21457;-71
2022/04/17 03:45:31;;;;;;;4.13;3.43;;;;;;;1.76;80.97;96028.73;1794941;80;21079;-71
2022/04/17 03:47:58;;;;;;;4.87;3.70;;;;;;;1.80;80.83;96031.88;1795652;80;21006;-71
2022/04/17 03:50:25;;;;;;;4.87;3.70;;;;;;;1.76;80.39;96032.64;1795453;80;21495;-71
2022/04/17 03:52:51;;;;;;;4.30;3.57;;;;;;;1.69;80.35;96029.92;1795506;80;21018;-71
2022/04/17 03:55:18;;;;;;;3.60;2.70;;;;;;;1.63;80.50;96033.66;1794813;80;21512;-70
2022/04/17 03:57:44;;;;;;;4.03;3.43;;;;;;;1.48;80.54;96032.88;1787409;80;20987;-70
2022/04/17 04:00:13;;;;;;;4.77;3.70;;;;;;;1.52;80.62;96035.16;1786959;80;21019;-70
2022/04/17 04:02:41;;;;;;;4.63;3.30;;;;;;;1.59;81.43;96038.75;1787099;80;21030;-71
2022/04/17 04:05:10;;;;;;;4.27;3.40;;;;;;;1.62;81.46;96041.45;1787269;80;20996;-71
2022/04/17 04:07:37;;;;;;;5.97;3.80;;;;;;;1.59;81.23;96036.16;1786966;80;21471;-71
2022/04/17 04:10:06;;;;;;;4.90;3.90;;;;;;;1.61;81.78;96031.44;1787132;80;20963;-70
2022/04/17 04:12:34;;;;;;;5.53;3.67;;;;;;;1.64;81.50;96031.54;1787172;80;21465;-71
2022/04/17 04:15:01;;;;;;;4.53;4.03;;;;;;;1.61;81.48;96034.05;1786885;80;21015;-71
2022/04/17 04:17:27;;;;;;;5.03;4.13;;;;;;;1.67;81.52;96038.10;1786810;80;21055;-71
2022/04/17 04:19:54;;;;;;;4.57;3.97;;;;;;;1.77;81.29;96030.09;1787262;80;21035;-71
2022/04/17 04:22:21;;;;;;;6.63;4.37;;;;;;;1.84;81.27;96030.69;1786732;80;21050;-71
2022/04/17 04:24:48;;;;;;;5.20;3.60;;;;;;;1.90;81.15;96028.63;1787021;80;21003;-71
2022/04/17 04:29:59;;;;;;;6.40;3.63;;;;;;;2.00;79.95;96044.03;1786902;80;21030;-73
2022/04/17 04:32:26;;;;;;;5.00;4.20;;;;;;;1.85;79.40;96041.53;1787149;80;21045;-71
2022/04/17 04:35:00;;;;;;;8.67;4.80;;;;;;;1.86;80.42;96038.08;1786737;80;21046;-70
2022/04/17 04:37:27;;;;;;;5.53;4.00;;;;;;;1.91;80.21;96035.15;1787126;80;20963;-70
2022/04/17 04:39:54;;;;;;;7.57;5.00;;;;;;;1.93;79.81;96046.91;1786893;80;21067;-70
2022/04/17 04:42:21;;;;;;;6.60;5.00;;;;;;;1.94;79.68;96044.35;1787168;80;21031;-71
2022/04/17 04:46:06;;;;;;;8.33;5.47;;;;;;;1.92;79.46;96047.34;1787023;80;20998;-70
2022/04/17 04:47:16;;;;;;;8.33;4.90;;;;;;;1.93;79.42;96041.27;1781743;80;21011;-70
2022/04/17 04:49:42;;;;;;;6.30;4.03;;;;;;;1.97;79.73;96038.77;1786762;80;20999;-70
2022/04/17 04:52:09;;;;;;;5.73;4.13;;;;;;;1.92;79.96;96039.96;1787174;80;21010;-70
2022/04/17 04:54:36;;;;;;;7.77;4.63;;;;;;;1.93;79.88;96042.58;1787427;80;20987;-71
2022/04/17 04:57:03;;;;;;;8.67;5.30;;;;;;;1.97;79.56;96047.88;1792310;80;21030;-70
2022/04/17 04:59:30;;;;;;;5.63;4.60;;;;;;;2.03;79.40;96043.66;1795242;80;21519;-70
2022/04/17 05:01:56;;;;;;;4.53;3.53;;;;;;;1.99;79.00;96044.86;1795370;80;21062;-71
2022/04/17 05:04:23;;;;;;;4.67;3.80;;;;;;;1.98;79.22;96046.59;1795369;80;20987;-70
2022/04/17 05:06:50;;;;;;;7.40;4.50;;;;;;;1.93;79.73;96044.30;1795094;80;20987;-71
2022/04/17 05:09:16;;;;;;;5.13;4.10;;;;;;;1.98;80.04;96046.59;1795415;80;21007;-70
2022/04/17 05:11:46;;;;;;;5.37;3.90;;;;;;;2.03;79.99;96045.39;1795204;80;21492;-70
2022/04/17 05:14:11;;;;;;;6.60;5.00;;;;;;;2.09;80.29;96038.60;1795220;80;21082;-69
2022/04/17 05:16:38;;;;;;;7.70;4.57;;;;;;;2.12;79.70;96044.30;1795226;80;20967;-70
2022/04/17 05:21:56;;;;;;;6.73;4.07;;;;;;;2.16;78.66;96048.27;1795617;80;21434;-70
2022/04/17 05:24:19;;;;;;;6.00;4.20;;;;;;;2.21;78.50;96044.89;1794655;80;20979;-70
2022/04/17 05:26:45;;;;;;;5.93;4.33;;;;;;;2.28;78.30;96047.66;1795692;80;21022;-70
2022/04/17 05:29:11;;;;;;;5.77;4.20;;;;;;;2.33;78.36;96049.05;1795849;80;21021;-71
2022/04/17 05:31:38;;;;;;;7.07;5.20;;;;;;;2.36;78.07;96045.20;1795361;80;21475;-71
2022/04/17 05:34:05;;;;;;;9.80;5.67;;;;;;;2.41;78.12;96046.61;1795695;80;21046;-71
2022/04/17 05:36:32;;;;;;;15.50;4.97;;;;;;;2.50;78.29;96044.20;1795257;80;21002;-70
2022/04/17 05:38:58;;;;;;;8.37;5.80;;;;;;;2.57;77.59;96036.53;1795677;80;20983;-71
2022/04/17 05:41:29;;;;;;;14.47;10.30;;;;;;;2.62;77.25;96039.63;1795675;80;21058;-71
2022/04/17 05:44:00;;;;;;;9.60;6.50;;;;;;;2.63;76.78;96047.48;1795561;80;20986;-71
2022/04/17 05:46:35;;;;;;;7.77;6.97;;;;;;;2.64;76.35;96050.96;1795258;80;21464;-71
2022/04/17 05:49:00;;;;;;;5.50;4.50;;;;;;;2.62;76.00;96044.84;1795455;80;21007;-71
2022/04/17 05:51:27;;;;;;;9.03;5.20;;;;;;;2.62;76.02;96044.84;1790089;80;21002;-70
2022/04/17 05:53:54;;;;;;;6.93;5.20;;;;;;;2.59;77.04;96045.66;1795598;80;20971;-71
2022/04/17 05:56:20;;;;;;;7.20;5.20;;;;;;;2.61;76.89;96041.36;1792987;80;21050;-71
2022/04/17 05:58:47;;;;;;;8.43;6.30;;;;;;;2.66;76.68;96036.24;1787237;80;21029;-70
2022/04/17 06:01:14;;;;;;;6.87;5.13;;;;;;;2.67;76.45;96039.29;1786808;80;21015;-71
2022/04/17 06:03:41;;;;;;;5.33;4.10;;;;;;;2.70;76.65;96033.73;1787116;80;21050;-70
2022/04/17 06:06:07;;;;;;;6.53;4.23;;;;;;;2.66;76.37;96028.00;1787218;80;21461;-70
2022/04/17 06:08:34;;;;;;;8.90;6.73;;;;;;;2.68;76.43;96029.34;1787245;80;21520;-70
2022/04/17 06:11:01;;;;;;;7.77;5.20;;;;;;;2.69;76.03;96025.88;1787211;80;20999;-70
2022/04/17 06:13:27;;;;;;;8.10;6.23;;;;;;;2.65;75.63;96023.65;1787011;80;21482;-70
2022/04/17 06:15:54;;;;;;;7.93;5.10;;;;;;;2.67;75.53;96011.53;1753987;80;21623;-71
2022/04/17 06:18:20;;;;;;;6.13;5.10;;;;;;;2.65;76.27;96015.83;1787378;80;20963;-71
2022/04/17 06:20:47;;;;;;;8.40;5.30;;;;;;;2.73;76.77;96007.72;1787168;80;20997;-71
2022/04/17 06:23:13;;;;;;;8.60;5.77;;;;;;;2.88;75.94;96004.52;1787455;80;20979;-71
2022/04/17 06:25:40;;;;;;;9.00;5.70;;;;;;;3.07;76.13;96008.73;1787283;80;21457;-71
2022/04/17 06:28:07;;;;;;;8.77;6.73;;;;;;;3.11;75.08;96010.13;1786794;80;21019;-71
2022/04/17 06:30:34;;;;;;;6.87;6.03;;;;;;;3.23;76.04;96015.55;1787100;80;20971;-72
2022/04/17 06:33:00;;;;;;;9.30;7.20;;;;;;;3.34;75.75;96017.45;1787151;80;21452;-72
2022/04/17 06:35:27;;;;;;;7.10;5.57;;;;;;;3.38;74.83;96018.83;1786922;80;21114;-71
2022/04/17 06:37:59;;;;;;;7.20;5.77;;;;;;;3.40;75.64;96019.74;1786926;80;21521;-71
2022/04/17 06:40:29;;;;;;;6.90;5.57;;;;;;;3.51;75.78;96021.20;1787545;80;21011;-71
2022/04/17 06:43:03;;;;;;;8.20;5.77;;;;;;;3.62;75.37;96022.23;1787073;80;21551;-71
2022/04/17 06:45:30;;;;;;;9.67;7.20;;;;;;;3.61;75.02;96024.84;1787078;80;20986;-70
2022/04/17 06:47:56;;;;;;;9.17;7.10;;;;;;;3.58;75.05;96031.29;1787106;80;21007;-70
2022/04/17 06:50:23;;;;;;;10.53;7.23;;;;;;;3.57;75.15;96035.63;1787117;80;20988;-70
2022/04/17 06:52:50;;;;;;;7.93;6.60;;;;;;;3.56;75.56;96031.72;1787043;80;21063;-70
2022/04/17 06:55:17;;;;;;;9.27;6.30;;;;;;;3.64;75.09;96039.23;1786858;80;21485;-71
2022/04/17 06:57:48;;;;;;;10.50;7.73;;;;;;;3.61;75.07;96034.84;1793242;80;21010;-70
2022/04/17 07:00:17;;;;;;;12.97;7.70;;;;;;;3.66;75.40;96030.56;1795273;80;21045;-70
2022/04/17 07:02:44;;;;;;;9.37;6.70;;;;;;;3.75;75.85;96036.34;1795389;80;21066;-71
2022/04/17 07:05:13;;;;;;;9.73;7.03;;;;;;;3.80;75.42;96037.72;1795638;80;21006;-71
2022/04/17 07:07:40;;;;;;;9.63;7.27;;;;;;;3.85;75.47;96035.61;1795556;80;21011;-71
2022/04/17 07:10:09;;;;;;;8.00;6.03;;;;;;;3.92;75.31;96033.11;1795480;80;21006;-71
2022/04/17 07:12:35;;;;;;;9.00;7.37;;;;;;;4.04;75.85;96027.63;1795586;80;21013;-72
2022/04/17 07:15:06;;;;;;;8.40;5.87;;;;;;;4.18;74.96;96030.84;1795475;80;21437;-71
2022/04/17 07:17:38;;;;;;;5.77;4.60;;;;;;;4.23;73.90;96035.26;1795238;80;21473;-71
2022/04/17 07:20:07;;;;;;;7.40;6.23;;;;;;;4.31;73.43;96034.95;1794969;80;21527;-71
2022/04/17 07:22:35;;;;;;;9.57;5.90;;;;;;;4.44;74.20;96036.42;1795558;80;21437;-71
2022/04/17 07:25:05;;;;;;;6.97;5.83;;;;;;;4.57;73.87;96037.00;1795500;80;21438;-71
2022/04/17 07:27:47;;;;;;;6.97;5.73;;;;;;;4.72;73.60;96033.25;1795428;80;21491;-70
2022/04/17 07:30:18;;;;;;;8.08;6.40;;;;;;;4.80;72.68;96032.03;1795382;80;21461;-70
2022/04/17 07:32:51;;;;;;;7.47;5.40;;;;;;;4.81;71.86;96035.51;1795330;80;21003;-70
2022/04/17 07:35:19;;;;;;;6.17;4.30;;;;;;;4.77;71.09;96040.72;1795618;80;21463;-70
2022/04/17 07:37:53;;;;;;;7.83;6.17;;;;;;;4.63;70.75;96043.59;1795369;80;21579;-70
2022/04/17 07:40:25;;;;;;;8.60;6.30;;;;;;;4.65;71.84;96049.72;1795432;80;21037;-70
2022/04/17 07:42:53;;;;;;;7.47;5.50;;;;;;;4.66;72.12;96047.57;1795689;80;21528;-70
2022/04/17 07:45:21;;;;;;;6.90;5.70;;;;;;;4.70;72.03;96048.47;1795273;80;21480;-72
2022/04/17 07:47:49;;;;;;;7.07;5.50;;;;;;;4.76;72.49;96054.66;1795452;80;20982;-72
2022/04/17 07:50:23;;;;;;;10.57;6.50;;;;;;;4.82;72.11;96051.23;1795428;80;21061;-73
2022/04/17 07:52:53;;;;;;;7.05;6.15;;;;;;;4.82;71.99;96049.92;1795696;80;20990;-72
2022/04/17 07:55:22;;;;;;;5.77;5.03;;;;;;;4.71;71.07;96049.81;1795186;80;21045;-72
2022/04/17 08:00:25;;;;;;;;;;;;;;;4.55;71.04;96039.58;1789646;80;21046;-72
2022/04/17 08:02:55;;;;;;;6.70;5.20;;;;;;;4.60;71.49;96046.17;1756143;81;20428;-72
2022/04/17 08:05:23;;;;;;;5.40;4.17;;;;;;;4.58;71.01;96041.36;1755983;82;20966;-73
2022/04/17 08:07:51;;;;;;;7.37;5.37;;;;;;;4.53;69.87;96046.95;1756147;82;20991;-73
2022/04/17 08:10:18;;;;;;;5.47;4.43;;;;;;;4.52;70.32;96039.55;1787157;80;21083;-72
2022/04/17 08:12:45;;;;;;;5.37;4.83;;;;;;;4.50;70.76;96051.72;1787070;80;21029;-73
2022/04/17 08:15:11;;;;;;;5.80;5.20;;;;;;;4.60;71.24;96047.92;1755825;82;21049;-72
2022/04/17 08:17:38;;;;;;;7.23;4.50;;;;;;;4.67;70.49;96051.06;1787044;80;20975;-72
2022/04/17 08:20:06;;;;;;;5.63;4.60;;;;;;;4.64;69.97;96049.28;1786702;80;21078;-72
2022/04/17 08:22:33;;;;;;;6.77;5.67;;;;;;;4.68;69.70;96044.52;1787128;80;21462;-73
2022/04/17 08:24:59;;;;;;;5.67;4.67;;;;;;;4.74;70.17;96045.91;1787042;80;21003;-73
2022/04/17 08:27:26;;;;;;;5.50;4.53;;;;;;;4.81;68.43;96045.53;1787079;80;21466;-72
2022/04/17 08:29:52;;;;;;;6.50;4.90;;;;;;;4.93;70.20;96036.52;1787128;80;21473;-73
2022/04/17 08:32:19;;;;;;;5.37;4.87;;;;;;;5.08;67.39;96042.33;1786728;80;21038;-73
2022/04/17 08:34:46;;;;;;;5.67;4.80;;;;;;;5.24;67.02;96041.17;1786680;80;21070;-73
2022/04/17 08:37:12;;;;;;;5.67;4.63;;;;;;;5.45;67.63;96037.45;1787123;80;21003;-72
2022/04/17 08:39:39;;;;;;;3.97;3.57;;;;;;;5.69;66.66;96036.74;1787022;80;21030;-72
2022/04/17 08:42:08;;;;;;;5.37;4.13;;;;;;;5.90;64.95;96032.11;1787139;80;20975;-72
2022/04/17 08:44:34;;;;;;;4.47;3.87;;;;;;;6.20;65.83;96028.83;1787134;80;20999;-73
2022/04/17 08:47:02;;;;;;;4.30;3.73;;;;;;;6.55;63.76;96025.50;1786944;80;21015;-72
2022/04/17 08:49:30;;;;;;;5.13;4.13;;;;;;;6.78;60.48;96023.37;1786975;80;21038;-72
2022/04/17 08:51:59;;;;;;;3.90;3.50;;;;;;;6.96;60.26;96015.56;1786945;80;21023;-72
2022/04/17 08:54:27;;;;;;;5.23;3.57;;;;;;;7.11;58.90;96013.41;1787018;80;20975;-71
2022/04/17 08:56:54;;;;;;;4.40;4.00;;;;;;;7.28;59.78;96013.00;1788133;80;20974;-69
2022/04/17 08:59:20;;;;;;;3.87;3.47;;;;;;;7.55;60.37;96012.11;1795451;80;20975;-69
2022/04/17 09:01:47;;;;;;;4.00;3.60;;;;;;;7.68;58.18;96018.67;1795210;80;21458;-68
2022/04/17 09:04:13;;;;;;;4.30;3.90;;;;;;;7.87;59.56;96007.28;1795621;80;20991;-68
2022/04/17 09:06:41;;;;;;;4.23;3.83;;;;;;;8.13;57.81;96003.72;1795387;80;21433;-69
2022/04/17 09:09:07;;;;;;;3.90;3.60;;;;;;;8.23;55.59;95995.80;1795532;80;20995;-69
2022/04/17 09:11:35;;;;;;;3.87;3.37;;;;;;;8.38;54.67;96000.13;1795482;80;20971;-69
2022/04/17 09:14:05;;;;;;;5.70;3.50;;;;;;;8.49;54.41;95993.54;1795396;80;21469;-69
2022/04/17 09:16:42;;;;;;;4.73;3.67;;;;;;;8.48;53.85;95997.06;1795167;80;20962;-69
2022/04/17 09:19:16;;;;;;;3.70;3.30;;;;;;;8.56;53.72;95995.27;1793821;80;21062;-69
2022/04/17 09:21:43;;;;;;;3.70;3.40;;;;;;;8.43;53.33;95998.39;1794771;80;21014;-69
2022/04/17 09:24:19;;;;;;;3.30;3.00;;;;;;;8.23;52.94;96002.81;1795420;80;21003;-69
2022/04/17 09:26:55;;;;;;;3.83;3.33;;;;;;;8.20;53.71;96004.14;1795489;80;20999;-69
2022/04/17 09:29:28;;;;;;;4.40;3.50;;;;;;;8.19;53.71;95992.77;1795312;80;20997;-69
2022/04/17 09:32:08;;;;;;;4.60;3.50;;;;;;;8.30;54.54;95991.41;1795364;80;21001;-70
2022/04/17 09:34:49;;;;;;;3.17;2.97;;;;;;;8.13;51.89;95997.15;1795658;80;21042;-69
2022/04/17 09:37:22;;;;;;;4.33;3.70;;;;;;;7.92;52.41;95991.52;1795333;80;21023;-69
2022/04/17 09:39:52;;;;;;;3.90;3.20;;;;;;;7.88;51.43;95987.13;1795374;80;20999;-69
2022/04/17 09:42:27;;;;;;;5.03;3.33;;;;;;;7.87;51.69;95991.96;1795581;80;21496;-69
2022/04/17 09:45:00;;;;;;;4.80;3.83;;;;;;;7.89;52.80;95977.08;1795358;80;21476;-69
2022/04/17 09:47:27;;;;;;;3.60;3.30;;;;;;;7.91;53.29;95979.23;1793058;80;21512;-68
2022/04/17 09:50:10;;;;;;;3.83;3.43;;;;;;;8.05;53.83;95982.72;1795383;80;21045;-69
2022/04/17 09:52:42;;;;;;;3.83;3.47;;;;;;;8.09;51.21;95969.11;1793803;80;21038;-69
2022/04/17 09:55:09;;;;;;;3.43;3.13;;;;;;;8.11;51.97;95971.30;1794975;80;21515;-69
2022/04/17 09:57:38;;;;;;;4.47;3.37;;;;;;;8.11;51.49;95967.36;1795299;80;21006;-69
2022/04/17 10:00:18;;;;;;;4.30;3.77;;;;;;;8.39;51.75;95963.80;1795115;80;21078;-69
2022/04/17 10:02:47;;;;;;;3.67;3.37;;;;;;;8.54;51.04;95956.30;1795254;80;20971;-69
2022/04/17 10:05:19;;;;;;;3.77;3.40;;;;;;;8.51;49.13;95955.41;1795244;80;20983;-69
2022/04/17 10:07:48;;;;;;;3.30;2.83;;;;;;;8.26;50.21;95955.92;1795498;80;20967;-69
2022/04/17 10:10:16;;;;;;;3.33;3.03;;;;;;;7.99;49.32;95959.09;1795477;80;20995;-69
2022/04/17 10:12:45;;;;;;;3.70;2.90;;;;;;;7.55;48.16;95960.91;1795484;80;20983;-69
2022/04/17 10:15:14;;;;;;;3.63;2.87;;;;;;;7.51;49.21;95964.84;1795520;80;21006;-69
2022/04/17 10:17:44;;;;;;;3.50;3.20;;;;;;;7.28;47.75;95962.23;1795336;80;21492;-72
2022/04/17 10:20:14;;;;;;;5.30;4.50;;;;;;;7.08;49.58;95974.92;1795526;80;21010;-71
2022/04/17 10:22:43;;;;;;;3.40;3.10;;;;;;;7.03;49.12;95970.52;1795602;80;21031;-71
2022/04/17 10:25:11;;;;;;;3.97;3.00;;;;;;;6.85;49.36;95967.44;1795393;80;21002;-71
2022/04/17 10:27:45;;;;;;;3.00;2.70;;;;;;;6.76;49.85;95973.55;1795431;80;21042;-71
2022/04/17 10:30:16;;;;;;;3.20;2.90;;;;;;;6.75;49.85;95965.23;1794922;80;21011;-71
2022/04/17 10:33:15;;;;;;;3.10;2.80;;;;;;;6.78;51.79;95963.05;1795347;80;21488;-71
2022/04/17 10:36:08;;;;;;;4.83;3.00;;;;;;;6.82;51.53;95960.87;1713886;84;21023;-71
2022/04/17 10:38:57;;;;;;;2.95;2.72;;;;;;;7.09;50.70;95946.93;1713532;84;21032;-72
2022/04/17 10:41:24;;;;;;;3.20;2.80;;;;;;;7.44;50.46;95944.74;1769671;80;20975;-72
2022/04/17 10:43:58;;;;;;;3.30;2.90;;;;;;;7.78;47.78;95937.22;1795237;80;21090;-72
2022/04/17 10:46:26;;;;;;;4.97;3.33;;;;;;;8.16;47.44;95924.41;1795357;80;21011;-69
2022/04/17 10:49:01;;;;;;;2.90;2.60;;;;;;;8.54;45.23;95919.89;1795461;80;21492;-70
2022/04/17 10:51:33;;;;;;;3.60;2.70;;;;;;;8.60;45.85;95922.05;1795545;80;21058;-69
2022/04/17 10:54:07;;;;;;;2.72;2.47;;;;;;;8.79;46.18;95925.88;1790566;80;21058;-69
2022/04/17 10:56:35;;;;;;;;;;;;;;;8.92;45.75;95923.63;1798134;80;20995;-70
2022/04/17 10:59:18;;;;;;;2.30;2.10;;;;;;;9.07;45.17;95919.98;1788748;80;20136;-69
2022/04/17 11:01:56;;;;;;;2.90;2.63;;;;;;;9.24;43.21;95913.27;1786596;80;21079;-69
2022/04/17 11:04:50;;;;;;;2.60;2.33;;;;;;;9.52;43.06;95903.36;1780241;80;21034;-69
2022/04/17 11:07:20;;;;;;;2.93;2.40;;;;;;;9.58;40.74;95892.78;1771116;80;20968;-68
2022/04/17 11:09:47;;;;;;;2.67;2.40;;;;;;;9.43;40.05;95901.70;1787118;80;21023;-69
2022/04/17 11:12:29;;;;;;;2.60;2.40;;;;;;;9.17;42.15;95899.72;1787226;80;21046;-68
2022/04/17 11:15:07;;;;;;;2.43;2.23;;;;;;;9.10;43.18;95907.69;1786922;80;20947;-69
2022/04/17 11:17:33;;;;;;;3.20;2.90;;;;;;;8.85;42.30;95904.80;1787158;80;21070;-69
2022/04/17 11:20:02;;;;;;;3.07;2.77;;;;;;;8.71;42.16;95895.67;1787329;80;21018;-69
2022/04/17 11:22:34;;;;;;;4.17;3.00;;;;;;;8.95;43.97;95899.04;1787046;80;21018;-69
2022/04/17 11:25:10;;;;;;;3.80;2.93;;;;;;;9.59;42.96;95890.56;1787108;80;20992;-69
2022/04/17 11:27:45;;;;;;;3.30;2.70;;;;;;;10.50;43.28;95884.26;1729836;80;21456;-69
2022/04/17 11:30:20;;;;;;;3.23;2.40;;;;;;;11.29;41.02;95879.97;1787079;80;21014;-69
2022/04/17 11:32:49;;;;;;;2.52;2.30;;;;;;;11.48;36.92;95879.63;1786791;80;21007;-69
2022/04/17 11:35:24;;;;;;;2.22;2.02;;;;;;;11.42;37.17;95871.83;1787020;80;21496;-68
2022/04/17 11:37:58;;;;;;;3.25;2.95;;;;;;;11.36;38.12;95865.77;1787154;80;21062;-69
2022/04/17 11:40:27;;;;;;;2.83;2.50;;;;;;;11.90;39.50;95862.60;1787093;80;21113;-69
2022/04/17 11:42:56;;;;;;;2.40;2.20;;;;;;;12.08;36.04;95857.39;1786953;80;21544;-69
2022/04/17 11:45:26;;;;;;;2.52;2.33;;;;;;;11.80;34.80;95862.33;1787114;80;21476;-69
2022/04/17 11:47:55;;;;;;;3.37;2.60;;;;;;;11.56;36.85;95866.28;1787047;80;21007;-69
2022/04/17 11:50:27;;;;;;;2.25;2.05;;;;;;;11.17;36.70;95873.14;1786923;80;21053;-69
2022/04/17 11:53:00;;;;;;;3.03;2.40;;;;;;;10.83;35.62;95871.91;1787379;80;21002;-69
2022/04/17 11:55:32;;;;;;;;;;;;;;;10.92;37.60;95871.34;1789521;80;20999;-69
2022/04/17 11:58:00;;;;;;;2.55;2.35;;;;;;;11.37;34.58;95860.47;1755756;82;20403;-68
2022/04/17 12:00:27;;;;;;;2.67;2.10;;;;;;;12.36;35.83;95850.21;1756043;82;21001;-69
2022/04/17 12:02:57;;;;;;;2.30;2.10;;;;;;;13.32;34.45;95841.81;1755920;82;21544;-69
2022/04/17 12:05:26;;;;;;;2.27;2.08;;;;;;;14.05;32.35;95824.37;1786591;80;21015;-69